Time;durP1;ratioP1;P1;durP2;ratioP2;P2;SDS_P1;SDS_P2;PMS_P1;PMS_P2;Temp;Humidity;BMP_temperature;BMP_pressure;BME280_temperature;BME280_humidity;BME280_pressure;Samples;Min_cycle;Max_cycle;Signal;HPM_P1;HPM_P2
2023/07/31 00:01:31;;;;;;;8.38;3.70;;;;;;;16.15;70.23;92929.81;2044586;70;20704;-82
2023/07/31 00:03:57;;;;;;;5.13;3.50;;;;;;;16.11;69.99;92923.22;2044433;70;20143;-82
2023/07/31 00:06:23;;;;;;;8.20;3.63;;;;;;;16.10;70.25;92928.19;2044367;70;20166;-82
2023/07/31 00:08:48;;;;;;;8.55;3.50;;;;;;;16.10;70.49;92927.44;2044457;70;20151;-82
2023/07/31 00:11:16;;;;;;;9.73;3.40;;;;;;;16.04;70.83;92924.34;2044621;70;20187;-82
2023/07/31 00:13:43;;;;;;;8.10;3.42;;;;;;;16.02;70.71;92934.22;2044556;70;20143;-81
2023/07/31 00:16:09;;;;;;;7.43;3.28;;;;;;;16.10;69.65;92933.13;2044480;70;20182;-81
2023/07/31 00:18:34;;;;;;;5.03;3.55;;;;;;;16.09;69.68;92921.03;2044578;70;20241;-82
2023/07/31 00:21:00;;;;;;;8.52;3.22;;;;;;;16.15;69.62;92924.13;2044758;70;20548;-80
2023/07/31 00:23:26;;;;;;;6.95;3.33;;;;;;;16.20;68.83;92939.97;2044834;70;20265;-81
2023/07/31 00:25:51;;;;;;;9.73;3.33;;;;;;;16.14;69.11;92928.38;2041188;70;20938;-81
2023/07/31 00:28:17;;;;;;;8.35;3.10;;;;;;;16.07;70.32;92932.28;2042868;70;20603;-81
2023/07/31 00:30:43;;;;;;;4.97;3.15;;;;;;;16.04;69.89;92927.91;2038262;70;20147;-81
2023/07/31 00:33:09;;;;;;;9.75;2.95;;;;;;;16.07;69.94;92932.28;2038275;70;20206;-81
2023/07/31 00:35:36;;;;;;;5.55;2.97;;;;;;;16.06;69.66;92935.78;2042373;70;20163;-81
2023/07/31 00:38:02;;;;;;;10.15;2.83;;;;;;;15.95;70.43;92924.00;2041345;70;20638;-81
2023/07/31 00:40:28;;;;;;;9.93;3.05;;;;;;;15.94;70.44;92928.22;2041342;70;20203;-81
2023/07/31 00:42:58;;;;;;;6.72;3.13;;;;;;;16.02;69.97;92930.66;2041501;70;20165;-83
2023/07/31 00:45:24;;;;;;;10.00;3.15;;;;;;;15.94;69.85;92918.94;2044456;70;20613;-81
2023/07/31 00:47:49;;;;;;;10.43;3.13;;;;;;;16.01;70.71;92920.69;2044271;70;20153;-81
2023/07/31 00:50:15;;;;;;;4.95;3.15;;;;;;;15.97;69.93;92921.22;2040926;70;20147;-81
2023/07/31 00:52:41;;;;;;;9.23;3.28;;;;;;;15.82;71.33;92915.56;2040802;70;20149;-81
2023/07/31 00:55:07;;;;;;;7.07;3.15;;;;;;;15.90;70.56;92911.00;2040936;70;20624;-81
2023/07/31 00:57:34;;;;;;;8.05;3.10;;;;;;;15.96;70.05;92919.03;2040754;70;20139;-81
2023/07/31 01:00:00;;;;;;;9.75;3.15;;;;;;;15.89;69.81;92922.97;2043954;70;20162;-82
2023/07/31 01:02:26;;;;;;;8.98;2.83;;;;;;;15.91;69.50;92914.56;2040935;70;20191;-81
2023/07/31 01:04:52;;;;;;;9.27;3.63;;;;;;;15.95;70.24;92914.75;2040630;70;20605;-81
2023/07/31 01:07:32;;;;;;;8.75;3.00;;;;;;;15.88;70.76;92916.56;2041136;70;20147;-81
2023/07/31 01:10:20;;;;;;;10.05;3.38;;;;;;;15.80;70.70;92919.03;2042051;70;20510;-81
2023/07/31 01:12:47;;;;;;;5.28;3.10;;;;;;;15.66;71.01;92912.72;2045302;70;20189;-81
2023/07/31 01:15:14;;;;;;;5.25;2.92;;;;;;;15.75;69.94;92912.44;2044744;70;20142;-81
2023/07/31 01:17:42;;;;;;;5.35;2.97;;;;;;;15.82;70.05;92907.06;2041978;70;20287;-80
2023/07/31 01:20:13;;;;;;;4.72;2.88;;;;;;;15.73;70.31;92905.94;2041962;70;20182;-81
2023/07/31 01:23:05;;;;;;;5.65;2.90;;;;;;;15.72;70.35;92907.34;2045282;70;20627;-80
2023/07/31 01:26:12;;;;;;;8.07;3.40;;;;;;;15.65;69.49;92912.00;2045100;70;20162;-81
2023/07/31 01:29:06;;;;;;;5.45;3.22;;;;;;;15.77;69.04;92919.59;2042053;70;20206;-81
2023/07/31 01:31:33;;;;;;;5.00;3.00;;;;;;;15.78;69.26;92927.47;2045503;70;20147;-81
2023/07/31 01:34:01;;;;;;;4.80;3.45;;;;;;;15.70;69.31;92913.63;2038607;70;20155;-81
2023/07/31 01:36:28;;;;;;;9.38;3.40;;;;;;;15.65;69.87;92909.16;2042149;70;20151;-80
2023/07/31 01:39:02;;;;;;;6.90;3.50;;;;;;;15.61;69.89;92903.25;2042325;70;20138;-82
2023/07/31 01:41:28;;;;;;;5.63;3.35;;;;;;;15.58;69.56;92904.56;2042261;70;20151;-82
2023/07/31 01:43:55;;;;;;;7.25;3.25;;;;;;;15.58;69.96;92903.81;2038668;70;20522;-82
2023/07/31 01:46:21;;;;;;;10.45;3.40;;;;;;;15.54;70.84;92912.88;2042270;70;20162;-82
2023/07/31 01:48:46;;;;;;;11.93;3.47;;;;;;;15.61;69.46;92894.00;2038822;70;20217;-81
2023/07/31 01:51:12;;;;;;;10.48;3.22;;;;;;;15.61;70.80;92903.25;2038928;70;20147;-82
2023/07/31 01:53:37;;;;;;;5.70;3.25;;;;;;;15.27;71.79;92910.94;2042037;70;20154;-81
2023/07/31 01:56:03;;;;;;;4.78;3.00;;;;;;;15.48;70.83;92904.81;2038750;70;20139;-83
2023/07/31 01:58:30;;;;;;;5.97;2.97;;;;;;;15.54;70.88;92901.53;2042001;70;20157;-82
2023/07/31 02:00:55;;;;;;;4.93;2.83;;;;;;;15.52;70.66;92904.25;2041851;70;20139;-82
2023/07/31 02:03:21;;;;;;;4.55;3.45;;;;;;;15.51;70.21;92892.19;2038564;70;20174;-82
2023/07/31 02:05:48;;;;;;;5.05;3.42;;;;;;;15.43;71.08;92888.97;2041728;70;20151;-82
2023/07/31 02:08:14;;;;;;;4.38;3.47;;;;;;;15.34;70.89;92881.47;2041789;70;20218;-82
2023/07/31 02:10:40;;;;;;;7.72;3.83;;;;;;;15.34;70.93;92880.72;2038638;70;20600;-82
2023/07/31 02:13:06;;;;;;;12.05;3.72;;;;;;;15.38;70.58;92884.47;2041800;70;20237;-82
2023/07/31 02:15:32;;;;;;;9.10;3.42;;;;;;;15.40;71.01;92895.22;2042018;70;20151;-82
2023/07/31 02:17:58;;;;;;;10.27;3.20;;;;;;;15.45;69.95;92888.34;2042214;70;20303;-82
2023/07/31 02:20:25;;;;;;;9.45;3.75;;;;;;;15.27;71.76;92888.25;2038247;70;20143;-82
2023/07/31 02:22:50;;;;;;;6.68;2.95;;;;;;;15.40;70.49;92881.03;2041850;70;20203;-82
2023/07/31 02:25:16;;;;;;;6.35;3.20;;;;;;;15.43;70.38;92877.63;2041701;70;20167;-82
2023/07/31 02:27:42;;;;;;;5.85;3.30;;;;;;;15.36;70.52;92878.00;2041797;70;20155;-82
2023/07/31 02:30:09;;;;;;;4.80;3.25;;;;;;;15.35;70.31;92882.94;2038345;70;20155;-83
2023/07/31 02:32:35;;;;;;;6.47;3.22;;;;;;;15.42;69.45;92872.59;2038447;70;20178;-83
2023/07/31 02:35:01;;;;;;;5.70;3.05;;;;;;;15.44;69.89;92881.19;2038449;70;20235;-82
2023/07/31 02:37:28;;;;;;;6.68;3.20;;;;;;;15.34;70.30;92884.28;2038470;70;20167;-82
2023/07/31 02:39:54;;;;;;;6.35;3.20;;;;;;;15.30;70.46;92883.38;2041845;70;20151;-82
2023/07/31 02:42:19;;;;;;;8.23;3.30;;;;;;;15.28;70.61;92886.88;2041699;70;20211;-82
2023/07/31 02:44:45;;;;;;;5.50;3.50;;;;;;;15.33;70.45;92882.84;2038389;70;20182;-82
2023/07/31 02:47:11;;;;;;;5.95;3.00;;;;;;;15.30;70.66;92880.53;2041709;70;20263;-82
2023/07/31 02:49:37;;;;;;;5.43;3.47;;;;;;;15.29;70.21;92890.44;2038387;70;20594;-82
2023/07/31 02:52:03;;;;;;;6.07;3.60;;;;;;;14.66;74.19;92891.00;2035579;70;20593;-82
2023/07/31 02:54:28;;;;;;;4.72;3.20;;;;;;;14.93;73.00;92888.06;2038238;70;20174;-83
2023/07/31 02:56:54;;;;;;;6.90;3.28;;;;;;;15.07;72.53;92884.44;2041573;70;20174;-82
2023/07/31 02:59:21;;;;;;;8.57;3.33;;;;;;;15.14;72.39;92891.88;2038154;70;20525;-82
2023/07/31 03:01:46;;;;;;;7.85;3.45;;;;;;;15.13;72.55;92890.41;2037644;70;20171;-82
2023/07/31 03:04:12;;;;;;;5.85;3.10;;;;;;;15.03;73.00;92890.66;2038352;70;20139;-82
2023/07/31 03:06:38;;;;;;;9.45;3.33;;;;;;;14.91;73.08;92898.59;2037719;70;20256;-83
2023/07/31 03:09:03;;;;;;;5.57;3.20;;;;;;;15.03;72.36;92896.34;2038149;70;20183;-82
2023/07/31 03:11:29;;;;;;;10.18;3.25;;;;;;;15.00;72.59;92895.50;2038258;70;20151;-82
2023/07/31 03:13:55;;;;;;;4.25;3.00;;;;;;;14.98;73.20;92891.81;2037983;70;20143;-82
2023/07/31 03:16:22;;;;;;;5.97;3.30;;;;;;;14.89;72.98;92889.97;2041028;70;20166;-83
2023/07/31 03:18:47;;;;;;;6.68;3.40;;;;;;;14.96;72.29;92903.06;2038922;70;20139;-82
2023/07/31 03:21:14;;;;;;;4.97;3.35;;;;;;;14.89;73.22;92907.72;2037881;70;20152;-82
2023/07/31 03:23:39;;;;;;;8.98;3.78;;;;;;;14.93;73.29;92907.19;2037840;70;20148;-82
2023/07/31 03:26:08;;;;;;;9.07;3.58;;;;;;;14.92;73.44;92903.59;2038205;70;20147;-83
2023/07/31 03:28:34;;;;;;;7.57;3.55;;;;;;;14.86;74.22;92903.31;2038072;70;20242;-80
2023/07/31 03:31:00;;;;;;;5.50;3.22;;;;;;;14.89;73.55;92904.91;2038430;70;20621;-82
2023/07/31 03:33:26;;;;;;;9.20;3.83;;;;;;;14.83;74.15;92896.09;2037865;70;20243;-82
2023/07/31 03:35:52;;;;;;;4.70;3.17;;;;;;;14.80;74.24;92897.38;2038408;70;20171;-82
2023/07/31 03:38:18;;;;;;;6.35;3.80;;;;;;;14.76;74.59;92904.94;2038365;70;20155;-80
2023/07/31 03:40:46;;;;;;;7.65;4.05;;;;;;;14.67;74.77;92900.97;2037842;70;20215;-80
2023/07/31 03:43:13;;;;;;;4.00;3.13;;;;;;;14.71;74.02;92904.75;2038341;70;20128;-81
2023/07/31 03:45:39;;;;;;;9.13;3.70;;;;;;;14.72;73.59;92905.47;2038295;70;20140;-81
2023/07/31 03:48:05;;;;;;;6.38;3.80;;;;;;;14.75;73.30;92892.84;2038372;70;20151;-81
2023/07/31 03:50:31;;;;;;;5.80;3.28;;;;;;;14.68;73.92;92902.44;2038288;70;20198;-81
2023/07/31 03:52:56;;;;;;;10.05;3.83;;;;;;;14.67;73.67;92906.66;2038299;70;20152;-80
2023/07/31 03:55:22;;;;;;;6.95;3.20;;;;;;;14.70;73.59;92905.38;2038357;70;20629;-81
2023/07/31 03:57:47;;;;;;;8.32;3.83;;;;;;;14.63;74.61;92907.19;2037810;70;20215;-80
2023/07/31 04:00:14;;;;;;;6.50;3.45;;;;;;;14.55;75.04;92901.09;2038534;70;20154;-81
2023/07/31 04:02:40;;;;;;;12.48;3.75;;;;;;;14.65;73.72;92903.69;2041563;70;20154;-81
2023/07/31 04:05:07;;;;;;;12.32;4.35;;;;;;;14.56;74.08;92901.84;2038266;70;20151;-80
2023/07/31 04:07:32;;;;;;;9.32;3.33;;;;;;;14.36;74.87;92901.53;2041557;70;20182;-81
2023/07/31 04:09:58;;;;;;;8.77;3.47;;;;;;;14.52;74.06;92901.63;2041565;70;20258;-81
2023/07/31 04:12:23;;;;;;;10.30;3.38;;;;;;;14.56;73.61;92910.34;2041649;70;20154;-81
2023/07/31 04:14:50;;;;;;;8.05;3.60;;;;;;;14.52;73.97;92902.38;2038233;70;20570;-81
2023/07/31 04:17:15;;;;;;;10.20;4.20;;;;;;;14.47;74.51;92909.91;2041520;70;20159;-81
2023/07/31 04:19:41;;;;;;;7.40;3.80;;;;;;;14.31;75.85;92905.53;2041315;70;20516;-81
2023/07/31 04:22:06;;;;;;;7.30;3.88;;;;;;;14.43;75.70;92903.31;2041524;70;20156;-81
2023/07/31 04:24:33;;;;;;;9.07;4.40;;;;;;;14.57;74.90;92904.06;2038148;70;20162;-81
2023/07/31 04:26:59;;;;;;;7.88;4.03;;;;;;;14.52;75.11;92907.31;2041567;70;20171;-81
2023/07/31 04:29:24;;;;;;;9.43;4.15;;;;;;;14.47;75.47;92895.75;2038194;70;20596;-81
2023/07/31 04:31:50;;;;;;;5.47;3.95;;;;;;;14.52;74.60;92890.31;2041680;70;20146;-81
2023/07/31 04:34:15;;;;;;;10.57;3.97;;;;;;;14.53;75.08;92891.78;2041424;70;20139;-81
2023/07/31 04:36:41;;;;;;;5.15;3.60;;;;;;;14.57;73.87;92892.72;2041682;70;20608;-82
2023/07/31 04:39:07;;;;;;;10.05;3.53;;;;;;;14.61;74.22;92889.34;2038266;70;20162;-81
2023/07/31 04:41:32;;;;;;;9.45;3.88;;;;;;;14.53;74.44;92886.13;2041351;70;20155;-81
2023/07/31 04:43:58;;;;;;;6.13;3.67;;;;;;;14.56;73.99;92885.56;2041169;70;20174;-81
2023/07/31 04:46:23;;;;;;;6.88;4.00;;;;;;;14.58;73.74;92885.69;2038196;70;20151;-81
2023/07/31 04:48:49;;;;;;;6.25;3.63;;;;;;;14.65;73.68;92878.94;2041646;70;20219;-81
2023/07/31 04:51:14;;;;;;;11.80;3.95;;;;;;;14.56;73.59;92882.00;2041580;70;20222;-82
2023/07/31 04:53:40;;;;;;;5.82;3.50;;;;;;;14.65;74.91;92890.25;2041442;70;20155;-81
2023/07/31 04:56:06;;;;;;;9.00;3.58;;;;;;;14.67;74.37;92886.81;2041552;70;20159;-81
2023/07/31 04:58:31;;;;;;;10.90;3.75;;;;;;;14.62;75.03;92888.00;2041259;70;20544;-81
2023/07/31 05:00:57;;;;;;;7.80;4.00;;;;;;;14.68;74.28;92891.13;2041408;70;20155;-82
2023/07/31 05:03:22;;;;;;;9.13;3.88;;;;;;;14.67;74.26;92884.72;2041358;70;20154;-81
2023/07/31 05:05:48;;;;;;;9.82;4.10;;;;;;;14.71;73.97;92890.59;2040133;70;20668;-81
2023/07/31 05:08:14;;;;;;;7.93;3.90;;;;;;;14.75;74.13;92892.84;2043096;70;20147;-82
2023/07/31 05:10:39;;;;;;;9.50;4.30;;;;;;;14.61;73.74;92887.22;2038475;70;20299;-81
2023/07/31 05:13:05;;;;;;;9.25;4.22;;;;;;;14.80;73.13;92896.63;2041291;70;20162;-81
2023/07/31 05:15:31;;;;;;;7.85;3.92;;;;;;;14.91;72.85;92898.59;2041461;70;20586;-81
2023/07/31 05:17:57;;;;;;;8.10;4.22;;;;;;;14.90;72.95;92889.34;2038079;70;20621;-81
2023/07/31 05:20:23;;;;;;;13.02;4.00;;;;;;;14.99;73.46;92893.31;2041392;70;20145;-81
2023/07/31 05:22:48;;;;;;;8.40;4.00;;;;;;;14.98;73.63;92908.84;2041351;70;20595;-81
2023/07/31 05:25:14;;;;;;;7.15;4.10;;;;;;;15.02;72.69;92909.03;2041399;70;20171;-81
2023/07/31 05:27:39;;;;;;;9.40;4.57;;;;;;;15.12;72.41;92914.44;2038278;70;20262;-82
2023/07/31 05:30:06;;;;;;;8.05;4.40;;;;;;;15.14;72.78;92912.44;2041252;70;20147;-82
2023/07/31 05:32:32;;;;;;;5.82;3.85;;;;;;;15.21;72.68;92907.78;2041334;70;20669;-82
2023/07/31 05:34:57;;;;;;;8.65;4.43;;;;;;;15.24;73.59;92915.75;2041207;70;20167;-81
2023/07/31 05:37:23;;;;;;;7.05;4.05;;;;;;;15.23;73.34;92905.06;2041136;70;20147;-84
2023/07/31 05:39:49;;;;;;;8.95;4.20;;;;;;;15.41;72.58;92905.91;2041298;70;20148;-83
2023/07/31 05:42:14;;;;;;;7.70;4.40;;;;;;;15.45;71.71;92908.94;2041260;70;20501;-81
2023/07/31 05:44:41;;;;;;;7.30;3.97;;;;;;;15.47;71.90;92914.69;2041095;70;20559;-81
2023/07/31 05:47:07;;;;;;;9.70;4.40;;;;;;;15.52;71.00;92904.25;2041253;70;20171;-82
2023/07/31 05:49:33;;;;;;;7.85;3.90;;;;;;;15.54;70.85;92900.81;2037937;70;20151;-82
2023/07/31 05:51:58;;;;;;;8.82;4.13;;;;;;;15.62;71.16;92909.66;2041274;70;20135;-81
2023/07/31 05:54:24;;;;;;;7.63;3.88;;;;;;;15.58;71.08;92898.13;2041354;70;20146;-83
2023/07/31 05:56:49;;;;;;;5.90;3.63;;;;;;;15.53;70.70;92897.22;2041842;70;20243;-83
2023/07/31 05:59:15;;;;;;;6.82;3.70;;;;;;;15.71;71.75;92900.16;2041750;70;20186;-82
2023/07/31 06:01:41;;;;;;;6.75;3.40;;;;;;;15.84;69.96;92892.94;2041658;70;20662;-81
2023/07/31 06:04:07;;;;;;;4.10;3.20;;;;;;;15.85;71.01;92880.97;2041760;70;20163;-81
2023/07/31 06:06:32;;;;;;;5.18;3.40;;;;;;;15.83;70.75;92886.53;2041731;70;20179;-81
2023/07/31 06:08:58;;;;;;;5.93;3.90;;;;;;;15.50;69.06;92887.16;2038483;70;20140;-81
2023/07/31 06:11:23;;;;;;;6.55;3.35;;;;;;;15.67;69.43;92883.72;2041881;70;20162;-81
2023/07/31 06:13:49;;;;;;;5.32;4.00;;;;;;;15.74;68.34;92879.75;2041704;70;20502;-81
2023/07/31 06:16:15;;;;;;;6.25;4.10;;;;;;;15.65;69.15;92882.88;2041724;70;20179;-81
2023/07/31 06:18:41;;;;;;;4.70;3.15;;;;;;;16.01;68.39;92895.84;2041815;70;20521;-81
2023/07/31 06:21:08;;;;;;;11.82;3.45;;;;;;;15.53;67.50;92891.53;2041754;70;20151;-87
2023/07/31 06:23:33;;;;;;;5.65;3.70;;;;;;;15.59;67.20;92888.25;2041877;70;20154;-81
2023/07/31 06:25:59;;;;;;;6.68;3.47;;;;;;;15.93;66.91;92886.25;2041740;70;20170;-81
2023/07/31 06:28:31;;;;;;;6.28;3.55;;;;;;;16.32;66.56;92893.59;2041867;70;20155;-85
2023/07/31 06:31:00;;;;;;;7.30;3.70;;;;;;;16.39;66.87;92886.78;2041587;70;20169;-81
2023/07/31 06:33:27;;;;;;;5.47;3.58;;;;;;;16.07;67.57;92886.88;2041699;70;20182;-81
2023/07/31 06:35:53;;;;;;;11.52;3.75;;;;;;;16.34;66.24;92888.00;2041691;70;20162;-81
2023/07/31 06:38:22;;;;;;;6.28;3.90;;;;;;;16.54;65.70;92874.66;2041705;70;20147;-81
2023/07/31 06:40:49;;;;;;;7.90;3.85;;;;;;;16.53;65.93;92870.34;2041703;70;20697;-81
2023/07/31 06:43:15;;;;;;;6.38;3.58;;;;;;;17.08;65.03;92869.72;2041558;70;20151;-82
2023/07/31 06:45:41;;;;;;;10.13;3.70;;;;;;;17.28;64.79;92855.59;2035889;70;20147;-82
2023/07/31 06:48:06;;;;;;;7.47;3.70;;;;;;;17.32;65.19;92857.84;2041673;70;20254;-83
2023/07/31 06:50:33;;;;;;;8.98;4.10;;;;;;;17.27;65.50;92852.00;2041607;70;20149;-84
2023/07/31 06:52:59;;;;;;;6.47;3.67;;;;;;;17.49;65.18;92860.66;2041571;70;20147;-88
2023/07/31 06:55:26;;;;;;;5.63;3.42;;;;;;;17.72;64.37;92867.91;2043489;70;20144;-84
2023/07/31 06:57:53;;;;;;;7.00;3.67;;;;;;;17.82;65.12;92864.72;2044714;70;20245;-85
2023/07/31 07:00:20;;;;;;;7.03;3.45;;;;;;;17.88;66.27;92855.69;2041590;70;20162;-85
2023/07/31 07:02:47;;;;;;;5.63;3.58;;;;;;;18.18;64.93;92856.03;2041588;70;20140;-86
2023/07/31 07:05:13;;;;;;;6.47;3.60;;;;;;;18.21;64.67;92855.44;2041466;70;20659;-85
2023/07/31 07:07:39;;;;;;;6.82;3.63;;;;;;;18.25;65.16;92852.00;2041644;70;20246;-85
2023/07/31 07:10:05;;;;;;;6.22;3.40;;;;;;;18.31;64.77;92854.34;2041633;70;20215;-84
2023/07/31 07:12:32;;;;;;;5.75;3.58;;;;;;;18.37;65.18;92851.69;2041659;70;20162;-84
2023/07/31 07:14:57;;;;;;;6.50;3.50;;;;;;;18.60;65.22;92853.19;2041432;70;20625;-85
2023/07/31 07:17:24;;;;;;;8.00;3.67;;;;;;;18.47;66.37;92849.22;2041629;70;20155;-84
2023/07/31 07:19:50;;;;;;;6.25;3.13;;;;;;;18.71;65.44;92852.16;2041602;70;20529;-84
2023/07/31 07:22:15;;;;;;;5.95;2.83;;;;;;;18.82;64.52;92853.22;2041516;70;20156;-84
2023/07/31 07:24:41;;;;;;;4.13;3.35;;;;;;;18.80;63.87;92836.78;2041487;70;20245;-84
2023/07/31 07:27:07;;;;;;;5.68;3.05;;;;;;;18.83;61.12;92834.72;2041549;70;20163;-84
2023/07/31 07:29:34;;;;;;;5.50;3.67;;;;;;;18.91;60.76;92834.97;2041465;70;20601;-84
2023/07/31 07:32:00;;;;;;;7.13;3.72;;;;;;;19.05;60.80;92841.13;2041733;70;20146;-83
2023/07/31 07:34:28;;;;;;;7.20;3.88;;;;;;;19.20;60.88;92833.75;2041643;70;20148;-83
2023/07/31 07:36:54;;;;;;;6.47;3.53;;;;;;;19.08;59.62;92841.94;2041615;70;20160;-83
2023/07/31 07:39:21;;;;;;;6.82;3.30;;;;;;;19.15;59.48;92846.41;2041620;70;20155;-83
2023/07/31 07:41:47;;;;;;;5.05;3.40;;;;;;;19.28;59.12;92843.28;2041718;70;20159;-83
2023/07/31 07:44:13;;;;;;;4.80;3.42;;;;;;;19.45;58.52;92853.06;2041494;70;20193;-83
2023/07/31 07:46:39;;;;;;;4.63;3.53;;;;;;;19.47;58.39;92844.59;2041715;70;20751;-83
2023/07/31 07:49:05;;;;;;;5.90;3.30;;;;;;;19.58;57.91;92850.59;2041537;70;20147;-83
2023/07/31 07:51:31;;;;;;;6.72;3.40;;;;;;;19.74;58.38;92840.38;2041585;70;20148;-83
2023/07/31 07:53:58;;;;;;;8.18;3.28;;;;;;;19.29;58.29;92833.34;2041684;70;20593;-83
2023/07/31 07:56:25;;;;;;;5.40;3.70;;;;;;;19.36;58.82;92831.38;2041558;70;20151;-84
2023/07/31 07:58:51;;;;;;;6.65;4.22;;;;;;;19.42;58.02;92830.84;2041384;70;20534;-83
2023/07/31 08:01:16;;;;;;;7.50;3.90;;;;;;;19.33;59.15;92820.56;2041472;70;20190;-83
2023/07/31 08:03:42;;;;;;;3.75;3.35;;;;;;;19.46;59.22;92820.28;2041740;70;20185;-83
2023/07/31 08:06:09;;;;;;;5.32;3.85;;;;;;;19.19;59.38;92824.44;2038354;70;20151;-83
2023/07/31 08:08:38;;;;;;;6.35;3.67;;;;;;;19.67;59.70;92820.91;2041551;70;20153;-83
2023/07/31 08:11:06;;;;;;;6.88;3.70;;;;;;;19.78;59.01;92828.34;2041648;70;20317;-84
2023/07/31 08:13:31;;;;;;;7.90;3.70;;;;;;;19.89;58.94;92835.09;2041387;70;20143;-84
2023/07/31 08:15:57;;;;;;;5.90;3.78;;;;;;;19.97;59.65;92838.16;2041729;70;20238;-84
2023/07/31 08:18:24;;;;;;;5.97;3.78;;;;;;;20.03;59.29;92841.94;2038129;70;20534;-84
2023/07/31 08:20:49;;;;;;;4.90;3.70;;;;;;;20.06;59.40;92834.13;2041588;70;20155;-85
2023/07/31 08:23:16;;;;;;;5.30;3.50;;;;;;;19.98;59.07;92811.81;2041486;70;20598;-84
2023/07/31 08:25:41;;;;;;;8.93;3.90;;;;;;;20.30;57.72;92819.81;2041467;70;20143;-84
2023/07/31 08:28:07;;;;;;;7.05;3.80;;;;;;;20.53;57.79;92812.56;2041403;70;20147;-85
2023/07/31 08:30:33;;;;;;;5.20;3.88;;;;;;;20.80;57.21;92808.22;2038199;70;20151;-83
2023/07/31 08:32:59;;;;;;;7.60;3.70;;;;;;;21.09;56.11;92806.78;2041476;70;20152;-84
2023/07/31 08:35:26;;;;;;;4.60;3.80;;;;;;;20.23;56.65;92789.59;2038248;70;20151;-85
2023/07/31 08:37:51;;;;;;;7.88;3.78;;;;;;;20.68;56.27;92796.47;2041460;70;20146;-84
2023/07/31 08:40:17;;;;;;;5.75;3.92;;;;;;;20.77;55.85;92798.13;2041915;70;20179;-84
2023/07/31 08:42:48;;;;;;;3.95;3.40;;;;;;;20.84;55.17;92796.88;2038342;70;20147;-85
2023/07/31 08:45:15;;;;;;;6.82;3.78;;;;;;;21.66;54.85;92796.59;2043896;70;20170;-85
2023/07/31 08:47:52;;;;;;;4.18;3.25;;;;;;;22.27;53.74;92786.38;2043659;70;20150;-85
2023/07/31 08:50:19;;;;;;;6.10;4.10;;;;;;;21.90;52.78;92782.06;2041624;70;20179;-85
2023/07/31 08:52:51;;;;;;;6.15;4.07;;;;;;;22.52;53.84;92773.19;2041603;70;20187;-85
2023/07/31 08:55:16;;;;;;;8.13;4.10;;;;;;;22.46;51.14;92772.38;2041401;70;20138;-85
2023/07/31 08:57:43;;;;;;;5.07;3.70;;;;;;;21.97;49.75;92769.28;2041514;70;20177;-85
2023/07/31 09:00:10;;;;;;;5.85;3.58;;;;;;;22.64;50.91;92760.50;2041279;70;20230;-85
2023/07/31 09:02:51;;;;;;;7.05;3.72;;;;;;;23.15;50.14;92752.72;2041467;70;20223;-85
2023/07/31 09:05:17;;;;;;;5.25;3.47;;;;;;;23.63;49.65;92755.53;2041521;70;20210;-86
2023/07/31 09:07:47;;;;;;;4.90;3.25;;;;;;;23.74;47.13;92762.91;2041370;70;20602;-85
2023/07/31 09:10:12;;;;;;;5.63;3.55;;;;;;;22.65;47.72;92759.78;2038171;70;20146;-85
2023/07/31 09:12:39;;;;;;;3.95;3.42;;;;;;;23.34;48.50;92751.56;2041376;70;20140;-86
2023/07/31 09:15:05;;;;;;;5.00;3.70;;;;;;;23.00;48.11;92755.38;2041290;70;20179;-86
2023/07/31 09:17:32;;;;;;;4.72;3.80;;;;;;;23.70;47.65;92750.63;2038270;70;20487;-85
2023/07/31 09:20:12;;;;;;;4.07;3.38;;;;;;;24.44;47.93;92747.16;2041425;70;20250;-86
2023/07/31 09:22:38;;;;;;;3.92;3.40;;;;;;;24.12;47.32;92753.28;2038176;70;20166;-86
2023/07/31 09:25:23;;;;;;;5.25;3.58;;;;;;;24.91;47.83;92726.69;2041337;70;20143;-86
2023/07/31 09:28:00;;;;;;;3.75;3.20;;;;;;;25.46;48.11;92738.63;2041368;70;20155;-86
2023/07/31 09:30:26;;;;;;;3.92;3.30;;;;;;;25.22;45.39;92734.16;2041800;70;20159;-87
2023/07/31 09:33:01;;;;;;;6.40;3.22;;;;;;;25.37;46.27;92734.97;2041978;70;20214;-86
2023/07/31 09:35:32;;;;;;;3.45;3.03;;;;;;;24.74;43.82;92726.59;2042014;70;20150;-87
2023/07/31 09:38:00;;;;;;;4.38;3.33;;;;;;;25.04;44.32;92725.34;2041876;70;20274;-87
2023/07/31 09:40:33;;;;;;;4.22;3.28;;;;;;;25.05;43.56;92721.03;2042329;70;20167;-87
2023/07/31 09:43:05;;;;;;;3.22;2.92;;;;;;;25.68;44.62;92723.59;2042484;70;20220;-87
2023/07/31 09:45:36;;;;;;;4.03;2.83;;;;;;;26.27;42.07;92724.56;2042205;70;20128;-85
2023/07/31 09:48:02;;;;;;;5.10;3.17;;;;;;;27.16;41.86;92716.75;2038748;70;20139;-87
2023/07/31 09:50:29;;;;;;;4.70;3.42;;;;;;;26.58;40.57;92716.00;2042278;70;20166;-87
2023/07/31 09:52:55;;;;;;;5.43;3.40;;;;;;;26.42;40.93;92718.81;2042006;70;20147;-86
2023/07/31 09:55:20;;;;;;;3.40;3.10;;;;;;;26.56;40.05;92710.22;2041804;70;20210;-86
2023/07/31 09:57:47;;;;;;;3.42;3.13;;;;;;;26.83;42.21;92700.13;2041877;70;20153;-86
2023/07/31 10:00:15;;;;;;;4.93;3.22;;;;;;;27.08;41.58;92695.09;2041685;70;20243;-86
2023/07/31 10:02:42;;;;;;;5.10;3.35;;;;;;;27.21;40.45;92689.28;2041799;70;20143;-86
2023/07/31 10:05:08;;;;;;;4.20;3.35;;;;;;;26.61;41.54;92680.63;2042188;70;20239;-87
2023/07/31 10:07:39;;;;;;;4.65;3.08;;;;;;;26.78;39.76;92669.81;2041885;70;20222;-86
2023/07/31 10:10:07;;;;;;;6.15;3.78;;;;;;;27.20;39.92;92665.44;2041856;70;20175;-86
2023/07/31 10:12:34;;;;;;;6.10;3.50;;;;;;;27.69;39.01;92664.59;2042060;70;20143;-86
2023/07/31 10:15:00;;;;;;;6.07;3.25;;;;;;;28.68;38.75;92657.53;2041987;70;20155;-86
2023/07/31 10:17:26;;;;;;;4.40;3.30;;;;;;;27.66;38.76;92646.53;2041986;70;20225;-84
2023/07/31 10:19:53;;;;;;;3.53;2.80;;;;;;;28.82;37.45;92654.56;2041742;70;20516;-85
2023/07/31 10:22:22;;;;;;;4.97;3.40;;;;;;;29.48;37.04;92651.03;2041716;70;20502;-85
2023/07/31 10:24:48;;;;;;;5.18;3.78;;;;;;;28.84;36.90;92642.94;2041763;70;20253;-86
2023/07/31 10:27:14;;;;;;;3.47;3.08;;;;;;;27.92;36.02;92645.00;2041840;70;20151;-85
2023/07/31 10:29:42;;;;;;;4.70;3.10;;;;;;;29.06;35.37;92633.34;2038525;70;20159;-85
2023/07/31 10:32:11;;;;;;;4.15;3.38;;;;;;;27.70;37.97;92620.47;2038558;70;20612;-85
2023/07/31 10:34:40;;;;;;;4.05;3.15;;;;;;;28.31;38.52;92617.25;2041958;70;20148;-86
2023/07/31 10:37:22;;;;;;;3.65;3.10;;;;;;;30.03;36.41;92630.81;2046051;70;20168;-85
2023/07/31 10:40:01;;;;;;;3.75;3.40;;;;;;;29.54;34.75;92627.78;2042865;70;20186;-85
2023/07/31 10:42:47;;;;;;;3.70;3.00;;;;;;;29.65;34.61;92622.63;2043355;70;20143;-85
2023/07/31 10:45:13;;;;;;;5.97;3.10;;;;;;;32.95;31.07;92627.66;2044906;70;20168;-83
2023/07/31 10:47:43;;;;;;;3.72;3.10;;;;;;;33.98;28.88;92627.13;2044959;70;20154;-86
2023/07/31 10:50:16;;;;;;;4.78;3.20;;;;;;;33.99;29.27;92633.66;2045012;70;20234;-86
2023/07/31 10:52:44;;;;;;;;;;;;;;;35.48;28.34;92637.84;2045167;70;20147;-86
2023/07/31 10:55:39;;;;;;;5.25;3.30;;;;;;;35.73;28.01;92634.78;2045015;70;20134;-86
2023/07/31 10:58:10;;;;;;;4.72;3.13;;;;;;;36.04;26.82;92637.34;2044366;70;20147;-86
2023/07/31 11:00:38;;;;;;;4.53;2.80;;;;;;;36.57;25.96;92639.03;2044798;70;20159;-86
2023/07/31 11:03:17;;;;;;;4.53;3.25;;;;;;;39.20;24.04;92632.81;2044916;70;20135;-85
2023/07/31 11:05:48;;;;;;;3.25;2.60;;;;;;;38.41;22.56;92622.56;2044972;70;20214;-85
2023/07/31 11:08:20;;;;;;;3.33;2.70;;;;;;;38.23;23.25;92611.63;2044927;70;20162;-86
2023/07/31 11:10:48;;;;;;;5.05;2.47;;;;;;;38.57;24.73;92615.19;2044944;70;20252;-87
2023/07/31 11:13:14;;;;;;;4.65;2.70;;;;;;;39.29;23.20;92612.53;2044946;70;20620;-90
2023/07/31 11:15:40;;;;;;;4.32;2.70;;;;;;;37.64;22.36;92598.00;2044944;70;20151;-90
2023/07/31 11:18:07;;;;;;;3.72;2.70;;;;;;;40.04;21.39;92605.72;2045074;70;20147;-89
2023/07/31 11:20:35;;;;;;;3.65;3.00;;;;;;;43.17;20.22;92603.03;2044985;70;20159;-89
2023/07/31 11:23:06;;;;;;;3.08;2.58;;;;;;;43.45;20.82;92590.88;2044910;70;20534;-90
2023/07/31 11:25:32;;;;;;;;;;;;;;;43.50;18.49;92595.69;2045010;70;20151;-90
2023/07/31 11:28:06;;;;;;;3.58;2.63;;;;;;;42.72;19.84;92581.50;2044870;70;20094;-89
2023/07/31 11:30:32;;;;;;;3.83;2.60;;;;;;;44.89;18.53;92589.09;2044897;70;20157;-90
2023/07/31 11:32:57;;;;;;;3.15;2.83;;;;;;;42.93;16.80;92566.09;2044989;70;20154;-87
2023/07/31 11:35:23;;;;;;;4.30;2.60;;;;;;;42.99;16.90;92560.50;2045017;70;20518;-88